DRK401 VNKT-VQPR
Flight info
| Callsign | DRK401 |
|---|---|
| Flight time | 1h 5m |
| Altitude | 35000 |
| Route | IGRIS1E KIMTI G348 SUBSU DCT TAKTI DCT PRO |
| Aircraft | A319/M-SDE3FGHIRWY/LB1 |
Departure
| Time | 2026-05-05 10:16 |
|---|---|
| Airport | Tribhuvan International Airport (VNKT) |
Arrival
| Time | 2026-05-05 11:21 |
|---|---|
| Airport | Paro International Airport (VQPR) |
| Time | Latitude | Longitude | Altitude | Speed | Heading |
|---|---|---|---|---|---|
| 2026-05-05 09:50 | 27.69823 | 85.35752 | 4354 ft | 0 kts | 291° |
| 2026-05-05 10:08 | 27.69817 | 85.35768 | 4369 ft | 4 kts | 292° |
| 2026-05-05 10:08 | 27.69807 | 85.35796 | 4353 ft | 4 kts | 296° |
| 2026-05-05 10:09 | 27.69794 | 85.35823 | 4353 ft | 4 kts | 306° |
| 2026-05-05 10:09 | 27.69776 | 85.35843 | 4358 ft | 4 kts | 347° |
| 2026-05-05 10:09 | 27.69765 | 85.35844 | 4354 ft | 0 kts | 22° |
| 2026-05-05 10:12 | 27.69774 | 85.35847 | 4362 ft | 3 kts | 22° |
| 2026-05-05 10:12 | 27.69811 | 85.35865 | 4357 ft | 8 kts | 22° |
| 2026-05-05 10:12 | 27.69859 | 85.35886 | 4368 ft | 7 kts | 22° |
| 2026-05-05 10:12 | 27.69917 | 85.35913 | 4363 ft | 11 kts | 21° |
| 2026-05-05 10:13 | 27.70007 | 85.35951 | 4359 ft | 16 kts | 20° |
| 2026-05-05 10:13 | 27.70121 | 85.36002 | 4363 ft | 17 kts | 23° |
| 2026-05-05 10:13 | 27.70224 | 85.36051 | 4374 ft | 15 kts | 21° |
| 2026-05-05 10:13 | 27.70322 | 85.36098 | 4383 ft | 15 kts | 22° |
| 2026-05-05 10:14 | 27.70412 | 85.36138 | 4383 ft | 13 kts | 21° |
| 2026-05-05 10:14 | 27.70503 | 85.36178 | 4388 ft | 20 kts | 23° |
| 2026-05-05 10:14 | 27.70578 | 85.36272 | 4392 ft | 10 kts | 100° |
| 2026-05-05 10:14 | 27.70536 | 85.36311 | 4393 ft | 9 kts | 182° |
| 2026-05-05 10:15 | 27.70474 | 85.36283 | 4391 ft | 11 kts | 205° |
| 2026-05-05 10:15 | 27.70370 | 85.36235 | 4388 ft | 36 kts | 201° |
| 2026-05-05 10:15 | 27.69899 | 85.36022 | 4365 ft | 107 kts | 202° |
| 2026-05-05 10:15 | 27.69026 | 85.35623 | 4350 ft | 161 kts | 203° |
| 2026-05-05 10:16 | 27.67972 | 85.35145 | 4846 ft | 162 kts | 202° |
| 2026-05-05 10:16 | 27.66923 | 85.34671 | 5415 ft | 162 kts | 206° |
| 2026-05-05 10:16 | 27.65954 | 85.33930 | 5762 ft | 179 kts | 227° |
| 2026-05-05 10:16 | 27.65211 | 85.32733 | 6019 ft | 200 kts | 246° |
| 2026-05-05 10:17 | 27.64906 | 85.31119 | 6267 ft | 224 kts | 270° |
| 2026-05-05 10:17 | 27.65284 | 85.29352 | 6624 ft | 243 kts | 297° |
| 2026-05-05 10:17 | 27.66375 | 85.27848 | 7273 ft | 255 kts | 320° |
| 2026-05-05 10:17 | 27.67940 | 85.26871 | 8046 ft | 261 kts | 342° |
| 2026-05-05 10:18 | 27.69755 | 85.26653 | 8916 ft | 267 kts | 6° |
| 2026-05-05 10:18 | 27.71530 | 85.27283 | 9756 ft | 272 kts | 30° |
| 2026-05-05 10:18 | 27.72953 | 85.28701 | 10556 ft | 277 kts | 54° |
| 2026-05-05 10:18 | 27.73860 | 85.30645 | 11335 ft | 282 kts | 65° |
| 2026-05-05 10:19 | 27.74688 | 85.32672 | 12169 ft | 286 kts | 65° |
| 2026-05-05 10:19 | 27.75495 | 85.34739 | 13011 ft | 291 kts | 71° |
| 2026-05-05 10:19 | 27.75815 | 85.37004 | 13881 ft | 297 kts | 91° |
| 2026-05-05 10:19 | 27.75471 | 85.39311 | 14711 ft | 301 kts | 110° |
| 2026-05-05 10:20 | 27.74494 | 85.41398 | 15486 ft | 303 kts | 130° |
| 2026-05-05 10:20 | 27.72973 | 85.43030 | 16221 ft | 303 kts | 149° |
| 2026-05-05 10:20 | 27.71113 | 85.44071 | 16921 ft | 304 kts | 161° |
| 2026-05-05 10:20 | 27.69160 | 85.45062 | 17467 ft | 317 kts | 156° |
| 2026-05-05 10:21 | 27.67238 | 85.46470 | 17628 ft | 344 kts | 144° |
| 2026-05-05 10:21 | 27.65477 | 85.48450 | 17771 ft | 370 kts | 131° |
| 2026-05-05 10:21 | 27.64069 | 85.50957 | 18179 ft | 385 kts | 118° |
| 2026-05-05 10:21 | 27.63128 | 85.53817 | 18717 ft | 394 kts | 108° |
| 2026-05-05 10:22 | 27.62357 | 85.56794 | 19277 ft | 398 kts | 109° |
| 2026-05-05 10:22 | 27.61558 | 85.59799 | 19817 ft | 402 kts | 109° |
| 2026-05-05 10:22 | 27.60794 | 85.62852 | 20365 ft | 408 kts | 104° |
| 2026-05-05 10:22 | 27.60231 | 85.66008 | 20931 ft | 413 kts | 103° |
| 2026-05-05 10:23 | 27.59679 | 85.69200 | 21486 ft | 417 kts | 103° |
| 2026-05-05 10:23 | 27.59127 | 85.72421 | 22084 ft | 421 kts | 103° |
| 2026-05-05 10:23 | 27.58567 | 85.75684 | 22656 ft | 426 kts | 103° |
| 2026-05-05 10:23 | 27.57999 | 85.78983 | 23183 ft | 430 kts | 103° |
| 2026-05-05 10:24 | 27.57425 | 85.82313 | 23682 ft | 435 kts | 103° |
| 2026-05-05 10:24 | 27.56846 | 85.85670 | 24122 ft | 439 kts | 103° |
| 2026-05-05 10:24 | 27.56258 | 85.89058 | 24607 ft | 442 kts | 103° |
| 2026-05-05 10:24 | 27.55665 | 85.92471 | 25073 ft | 445 kts | 103° |
| 2026-05-05 10:25 | 27.55071 | 85.95903 | 25527 ft | 448 kts | 103° |
| 2026-05-05 10:25 | 27.54469 | 85.99363 | 25970 ft | 451 kts | 103° |
| 2026-05-05 10:25 | 27.53859 | 86.02840 | 26407 ft | 453 kts | 103° |
| 2026-05-05 10:25 | 27.53247 | 86.06338 | 26778 ft | 456 kts | 103° |
| 2026-05-05 10:26 | 27.52633 | 86.09855 | 27165 ft | 459 kts | 103° |
| 2026-05-05 10:26 | 27.52015 | 86.13393 | 27583 ft | 462 kts | 104° |
| 2026-05-05 10:26 | 27.51401 | 86.16903 | 27972 ft | 465 kts | 103° |
| 2026-05-05 10:26 | 27.50773 | 86.20488 | 28393 ft | 468 kts | 104° |
| 2026-05-05 10:27 | 27.50139 | 86.24092 | 28788 ft | 471 kts | 103° |
| 2026-05-05 10:27 | 27.49501 | 86.27717 | 29191 ft | 473 kts | 104° |
| 2026-05-05 10:27 | 27.48834 | 86.31356 | 29588 ft | 475 kts | 104° |
| 2026-05-05 10:27 | 27.48137 | 86.35008 | 30005 ft | 478 kts | 105° |
| 2026-05-05 10:28 | 27.47422 | 86.38673 | 30339 ft | 480 kts | 105° |
| 2026-05-05 10:28 | 27.46698 | 86.42355 | 30618 ft | 483 kts | 105° |
| 2026-05-05 10:28 | 27.45971 | 86.46057 | 30930 ft | 486 kts | 105° |
| 2026-05-05 10:28 | 27.45247 | 86.49777 | 31266 ft | 487 kts | 104° |
| 2026-05-05 10:29 | 27.44526 | 86.53512 | 31550 ft | 489 kts | 104° |
| 2026-05-05 10:29 | 27.43804 | 86.57269 | 31798 ft | 491 kts | 104° |
| 2026-05-05 10:29 | 27.43081 | 86.61037 | 31973 ft | 493 kts | 105° |
| 2026-05-05 10:29 | 27.42354 | 86.64819 | 32287 ft | 495 kts | 105° |
| 2026-05-05 10:30 | 27.41625 | 86.68618 | 32602 ft | 497 kts | 105° |
| 2026-05-05 10:30 | 27.40890 | 86.72429 | 32985 ft | 497 kts | 105° |
| 2026-05-05 10:30 | 27.40161 | 86.76183 | 33392 ft | 497 kts | 105° |
| 2026-05-05 10:30 | 27.39419 | 86.79978 | 33806 ft | 496 kts | 106° |
| 2026-05-05 10:31 | 27.38675 | 86.83772 | 34226 ft | 496 kts | 106° |
| 2026-05-05 10:31 | 27.37932 | 86.87558 | 34497 ft | 497 kts | 106° |
| 2026-05-05 10:31 | 27.37187 | 86.91355 | 34842 ft | 497 kts | 106° |
| 2026-05-05 10:31 | 27.36443 | 86.95149 | 35036 ft | 497 kts | 106° |
| 2026-05-05 10:32 | 27.34958 | 87.02696 | 35100 ft | 487 kts | 106° |
| 2026-05-05 10:32 | 27.33494 | 87.10103 | 35094 ft | 484 kts | 106° |
| 2026-05-05 10:33 | 27.31965 | 87.17456 | 35041 ft | 481 kts | 112° |
| 2026-05-05 10:33 | 27.29123 | 87.24131 | 35043 ft | 470 kts | 127° |
| 2026-05-05 10:34 | 27.25680 | 87.30350 | 35059 ft | 471 kts | 127° |
| 2026-05-05 10:34 | 27.22240 | 87.36600 | 35022 ft | 468 kts | 127° |
| 2026-05-05 10:35 | 27.18795 | 87.42837 | 35002 ft | 472 kts | 127° |
| 2026-05-05 10:35 | 27.15319 | 87.49102 | 35011 ft | 473 kts | 128° |
| 2026-05-05 10:36 | 27.11845 | 87.55383 | 35003 ft | 474 kts | 128° |
| 2026-05-05 10:36 | 27.08370 | 87.61677 | 34969 ft | 473 kts | 128° |
| 2026-05-05 10:37 | 27.04910 | 87.67913 | 34971 ft | 473 kts | 128° |
| 2026-05-05 10:37 | 27.01424 | 87.74169 | 34978 ft | 474 kts | 128° |
| 2026-05-05 10:38 | 26.97918 | 87.80446 | 34986 ft | 475 kts | 128° |
| 2026-05-05 10:38 | 26.94409 | 87.86735 | 34952 ft | 475 kts | 128° |
| 2026-05-05 10:39 | 26.90914 | 87.93009 | 34950 ft | 474 kts | 128° |
| 2026-05-05 10:39 | 26.87433 | 87.99233 | 34957 ft | 475 kts | 128° |
| 2026-05-05 10:40 | 26.83916 | 88.05497 | 34899 ft | 475 kts | 129° |
| 2026-05-05 10:40 | 26.80409 | 88.11762 | 34888 ft | 475 kts | 128° |
| 2026-05-05 10:41 | 26.76894 | 88.18017 | 34890 ft | 475 kts | 128° |
| 2026-05-05 10:41 | 26.73435 | 88.24353 | 34860 ft | 481 kts | 122° |
| 2026-05-05 10:42 | 26.71697 | 88.31679 | 34444 ft | 501 kts | 96° |
| 2026-05-05 10:42 | 26.71884 | 88.35584 | 33761 ft | 507 kts | 81° |
| 2026-05-05 10:42 | 26.72843 | 88.39374 | 33079 ft | 507 kts | 66° |
| 2026-05-05 10:43 | 26.74471 | 88.42841 | 32536 ft | 501 kts | 56° |
| 2026-05-05 10:43 | 26.76273 | 88.46113 | 31939 ft | 499 kts | 56° |
| 2026-05-05 10:43 | 26.78081 | 88.49421 | 31358 ft | 496 kts | 56° |
| 2026-05-05 10:43 | 26.79869 | 88.52712 | 30780 ft | 494 kts | 57° |
| 2026-05-05 10:44 | 26.81645 | 88.55989 | 30199 ft | 491 kts | 57° |
| 2026-05-05 10:44 | 26.83419 | 88.59258 | 29568 ft | 488 kts | 57° |
| 2026-05-05 10:44 | 26.84587 | 88.61404 | 29201 ft | 485 kts | 57° |
| 2026-05-05 10:44 | 26.86334 | 88.64607 | 28715 ft | 480 kts | 57° |
| 2026-05-05 10:45 | 26.88065 | 88.67778 | 28175 ft | 475 kts | 57° |
| 2026-05-05 10:45 | 26.89776 | 88.70916 | 27659 ft | 470 kts | 57° |
| 2026-05-05 10:45 | 26.91468 | 88.74021 | 27150 ft | 464 kts | 57° |
| 2026-05-05 10:45 | 26.93141 | 88.77092 | 26657 ft | 460 kts | 57° |
| 2026-05-05 10:46 | 26.94801 | 88.80140 | 26180 ft | 456 kts | 57° |
| 2026-05-05 10:46 | 26.96444 | 88.83160 | 25685 ft | 452 kts | 57° |
| 2026-05-05 10:46 | 26.98075 | 88.86160 | 25181 ft | 450 kts | 57° |
| 2026-05-05 10:46 | 26.99672 | 88.89171 | 24732 ft | 449 kts | 59° |
| 2026-05-05 10:47 | 27.01211 | 88.92210 | 24237 ft | 448 kts | 60° |
| 2026-05-05 10:47 | 27.02716 | 88.95265 | 23719 ft | 447 kts | 61° |
| 2026-05-05 10:47 | 27.04210 | 88.98329 | 23143 ft | 448 kts | 60° |
| 2026-05-05 10:47 | 27.05699 | 89.01373 | 22738 ft | 442 kts | 60° |
| 2026-05-05 10:48 | 27.07187 | 89.04391 | 22263 ft | 439 kts | 60° |
| 2026-05-05 10:48 | 27.08662 | 89.07361 | 21993 ft | 431 kts | 60° |
| 2026-05-05 10:48 | 27.10103 | 89.10254 | 21806 ft | 417 kts | 60° |
| 2026-05-05 10:48 | 27.11498 | 89.13054 | 21670 ft | 406 kts | 60° |
| 2026-05-05 10:49 | 27.12857 | 89.15780 | 21496 ft | 395 kts | 59° |
| 2026-05-05 10:49 | 27.14183 | 89.18440 | 21321 ft | 386 kts | 60° |
| 2026-05-05 10:49 | 27.15492 | 89.21074 | 20723 ft | 390 kts | 60° |
| 2026-05-05 10:49 | 27.16897 | 89.23657 | 20113 ft | 383 kts | 51° |
| 2026-05-05 10:50 | 27.18683 | 89.25822 | 19559 ft | 374 kts | 38° |
| 2026-05-05 10:50 | 27.20773 | 89.27490 | 19017 ft | 364 kts | 26° |
| 2026-05-05 10:50 | 27.23051 | 89.28634 | 18488 ft | 353 kts | 15° |
| 2026-05-05 10:50 | 27.25398 | 89.29258 | 17929 ft | 341 kts | 7° |
| 2026-05-05 10:51 | 27.27708 | 89.29715 | 17419 ft | 333 kts | 7° |
| 2026-05-05 10:51 | 27.29928 | 89.30157 | 16939 ft | 324 kts | 7° |
| 2026-05-05 10:51 | 27.32124 | 89.30585 | 16455 ft | 315 kts | 6° |
| 2026-05-05 10:51 | 27.34266 | 89.30566 | 15996 ft | 303 kts | 347° |
| 2026-05-05 10:52 | 27.36224 | 89.29823 | 15555 ft | 293 kts | 328° |
| 2026-05-05 10:52 | 27.37922 | 89.28591 | 15120 ft | 287 kts | 323° |
| 2026-05-05 10:52 | 27.39573 | 89.27350 | 14698 ft | 284 kts | 323° |
| 2026-05-05 10:52 | 27.41249 | 89.26200 | 14286 ft | 280 kts | 335° |
| 2026-05-05 10:53 | 27.43112 | 89.25725 | 14052 ft | 270 kts | 357° |
| 2026-05-05 10:53 | 27.44909 | 89.26036 | 13991 ft | 255 kts | 18° |
| 2026-05-05 10:53 | 27.46394 | 89.26951 | 13954 ft | 237 kts | 38° |
| 2026-05-05 10:53 | 27.47476 | 89.28292 | 13971 ft | 225 kts | 58° |
| 2026-05-05 10:54 | 27.48094 | 89.29838 | 13861 ft | 210 kts | 75° |
| 2026-05-05 10:54 | 27.48278 | 89.31410 | 13746 ft | 198 kts | 91° |
| 2026-05-05 10:54 | 27.48060 | 89.33003 | 13029 ft | 213 kts | 110° |
| 2026-05-05 10:54 | 27.47414 | 89.34488 | 12622 ft | 212 kts | 126° |
| 2026-05-05 10:55 | 27.46424 | 89.35700 | 12215 ft | 209 kts | 143° |
| 2026-05-05 10:55 | 27.45346 | 89.36807 | 11564 ft | 216 kts | 135° |
| 2026-05-05 10:55 | 27.44471 | 89.38212 | 10825 ft | 225 kts | 118° |
| 2026-05-05 10:55 | 27.43833 | 89.39851 | 9906 ft | 236 kts | 116° |
| 2026-05-05 10:56 | 27.42832 | 89.41340 | 8939 ft | 236 kts | 145° |
| 2026-05-05 10:56 | 27.41308 | 89.41905 | 7780 ft | 243 kts | 164° |
| 2026-05-05 10:56 | 27.39746 | 89.42917 | 7817 ft | 273 kts | 145° |
| 2026-05-05 10:56 | 27.38080 | 89.43848 | 9066 ft | 261 kts | 164° |
| 2026-05-05 10:57 | 27.36358 | 89.44187 | 10337 ft | 238 kts | 172° |
| 2026-05-05 10:57 | 27.34837 | 89.44745 | 11116 ft | 239 kts | 148° |
| 2026-05-05 10:57 | 27.33651 | 89.46177 | 11337 ft | 266 kts | 122° |
| 2026-05-05 10:57 | 27.33003 | 89.48224 | 11647 ft | 293 kts | 98° |
| 2026-05-05 10:58 | 27.32877 | 89.50577 | 12200 ft | 307 kts | 97° |
| 2026-05-05 10:58 | 27.32176 | 89.52846 | 12835 ft | 311 kts | 127° |
| 2026-05-05 10:58 | 27.30548 | 89.54412 | 13644 ft | 311 kts | 158° |
| 2026-05-05 10:58 | 27.28448 | 89.54848 | 14384 ft | 311 kts | 187° |
| 2026-05-05 10:59 | 27.26394 | 89.54139 | 15133 ft | 311 kts | 210° |
| 2026-05-05 10:59 | 27.24694 | 89.52643 | 15770 ft | 313 kts | 230° |
| 2026-05-05 10:59 | 27.23600 | 89.50544 | 15987 ft | 313 kts | 252° |
| 2026-05-05 10:59 | 27.23312 | 89.48142 | 16057 ft | 312 kts | 272° |
| 2026-05-05 11:00 | 27.23510 | 89.45745 | 16065 ft | 313 kts | 275° |
| 2026-05-05 11:00 | 27.23715 | 89.43314 | 16073 ft | 312 kts | 275° |
| 2026-05-05 11:00 | 27.23912 | 89.40879 | 16073 ft | 312 kts | 274° |
| 2026-05-05 11:00 | 27.24103 | 89.38451 | 16084 ft | 312 kts | 274° |
| 2026-05-05 11:01 | 27.24292 | 89.36024 | 16078 ft | 312 kts | 275° |
| 2026-05-05 11:01 | 27.24811 | 89.33643 | 15599 ft | 319 kts | 294° |
| 2026-05-05 11:01 | 27.26167 | 89.31663 | 15079 ft | 326 kts | 319° |
| 2026-05-05 11:01 | 27.28176 | 89.30449 | 14561 ft | 334 kts | 343° |
| 2026-05-05 11:02 | 27.30501 | 89.30267 | 14056 ft | 341 kts | 5° |
| 2026-05-05 11:02 | 27.32828 | 89.30619 | 13505 ft | 333 kts | 1° |
| 2026-05-05 11:02 | 27.35080 | 89.30316 | 12948 ft | 321 kts | 341° |
| 2026-05-05 11:02 | 27.37047 | 89.29244 | 12411 ft | 311 kts | 324° |
| 2026-05-05 11:03 | 27.38832 | 89.27909 | 11872 ft | 306 kts | 325° |
| 2026-05-05 11:03 | 27.40597 | 89.26606 | 11342 ft | 302 kts | 327° |
| 2026-05-05 11:03 | 27.42551 | 89.25786 | 10835 ft | 302 kts | 352° |
| 2026-05-05 11:03 | 27.44577 | 89.25952 | 10789 ft | 275 kts | 18° |
| 2026-05-05 11:04 | 27.46074 | 89.26812 | 12158 ft | 217 kts | 38° |
| 2026-05-05 11:04 | 27.47143 | 89.27976 | 13113 ft | 224 kts | 51° |
| 2026-05-05 11:04 | 27.47996 | 89.29520 | 12522 ft | 239 kts | 65° |
| 2026-05-05 11:04 | 27.48515 | 89.31277 | 11830 ft | 235 kts | 86° |
| 2026-05-05 11:05 | 27.48162 | 89.32976 | 11327 ft | 219 kts | 121° |
| 2026-05-05 11:05 | 27.47376 | 89.34356 | 10971 ft | 201 kts | 126° |
| 2026-05-05 11:05 | 27.46508 | 89.35564 | 10525 ft | 196 kts | 134° |
| 2026-05-05 11:05 | 27.45596 | 89.36697 | 10088 ft | 195 kts | 127° |
| 2026-05-05 11:06 | 27.44803 | 89.37920 | 9654 ft | 192 kts | 123° |
| 2026-05-05 11:06 | 27.44068 | 89.39225 | 8914 ft | 201 kts | 121° |
| 2026-05-05 11:06 | 27.43463 | 89.40633 | 8445 ft | 197 kts | 119° |
| 2026-05-05 11:06 | 27.42521 | 89.41539 | 8128 ft | 180 kts | 163° |
| 2026-05-05 11:07 | 27.41292 | 89.41847 | 7660 ft | 175 kts | 138° |
| 2026-05-05 11:07 | 27.40289 | 89.42592 | 7879 ft | 182 kts | 155° |
| 2026-05-05 11:07 | 27.39112 | 89.43273 | 8507 ft | 201 kts | 148° |
| 2026-05-05 11:07 | 27.37905 | 89.44220 | 8950 ft | 219 kts | 145° |
| 2026-05-05 11:08 | 27.36677 | 89.45248 | 9507 ft | 227 kts | 143° |
| 2026-05-05 11:08 | 27.35379 | 89.46327 | 10052 ft | 236 kts | 143° |
| 2026-05-05 11:08 | 27.34032 | 89.47425 | 10599 ft | 240 kts | 144° |
| 2026-05-05 11:08 | 27.32790 | 89.48653 | 11334 ft | 240 kts | 127° |
| 2026-05-05 11:09 | 27.32277 | 89.50437 | 11986 ft | 247 kts | 92° |
| 2026-05-05 11:09 | 27.32214 | 89.52361 | 12712 ft | 248 kts | 103° |
| 2026-05-05 11:09 | 27.31369 | 89.54000 | 13388 ft | 245 kts | 144° |
| 2026-05-05 11:09 | 27.29832 | 89.54699 | 14069 ft | 240 kts | 182° |
| 2026-05-05 11:10 | 27.28240 | 89.54260 | 14738 ft | 238 kts | 211° |
| 2026-05-05 11:10 | 27.26837 | 89.53256 | 15428 ft | 240 kts | 219° |
| 2026-05-05 11:10 | 27.25759 | 89.51810 | 15694 ft | 251 kts | 246° |
| 2026-05-05 11:10 | 27.25478 | 89.49899 | 15439 ft | 251 kts | 276° |
| 2026-05-05 11:11 | 27.25984 | 89.48030 | 15202 ft | 251 kts | 291° |
| 2026-05-05 11:11 | 27.26624 | 89.46213 | 14972 ft | 250 kts | 290° |
| 2026-05-05 11:11 | 27.27250 | 89.44401 | 14734 ft | 248 kts | 290° |
| 2026-05-05 11:11 | 27.27865 | 89.42603 | 14505 ft | 246 kts | 289° |
| 2026-05-05 11:12 | 27.28468 | 89.40832 | 14278 ft | 245 kts | 289° |
| 2026-05-05 11:12 | 27.29075 | 89.39046 | 14048 ft | 244 kts | 289° |
| 2026-05-05 11:12 | 27.29671 | 89.37284 | 13807 ft | 237 kts | 289° |
| 2026-05-05 11:12 | 27.30232 | 89.35639 | 13599 ft | 217 kts | 290° |
| 2026-05-05 11:13 | 27.30783 | 89.34164 | 13350 ft | 191 kts | 294° |
| 2026-05-05 11:13 | 27.31477 | 89.32980 | 13098 ft | 173 kts | 304° |
| 2026-05-05 11:13 | 27.32279 | 89.32032 | 12844 ft | 164 kts | 316° |
| 2026-05-05 11:13 | 27.33178 | 89.31273 | 12601 ft | 161 kts | 326° |
| 2026-05-05 11:14 | 27.34180 | 89.30693 | 12352 ft | 163 kts | 334° |
| 2026-05-05 11:14 | 27.35256 | 89.30293 | 12118 ft | 162 kts | 341° |
| 2026-05-05 11:14 | 27.36285 | 89.29792 | 11877 ft | 161 kts | 329° |
| 2026-05-05 11:14 | 27.37220 | 89.29118 | 11772 ft | 159 kts | 321° |
| 2026-05-05 11:15 | 27.38145 | 89.28423 | 11772 ft | 160 kts | 323° |
| 2026-05-05 11:15 | 27.39076 | 89.27727 | 11777 ft | 161 kts | 324° |
| 2026-05-05 11:15 | 27.40005 | 89.27036 | 11776 ft | 160 kts | 324° |
| 2026-05-05 11:15 | 27.40946 | 89.26368 | 11772 ft | 161 kts | 329° |
| 2026-05-05 11:16 | 27.41995 | 89.25907 | 11775 ft | 163 kts | 342° |
| 2026-05-05 11:16 | 27.43126 | 89.25719 | 11705 ft | 166 kts | 356° |
| 2026-05-05 11:16 | 27.44276 | 89.25833 | 11677 ft | 163 kts | 12° |
| 2026-05-05 11:16 | 27.45337 | 89.26226 | 12045 ft | 162 kts | 22° |
| 2026-05-05 11:17 | 27.46304 | 89.26873 | 12441 ft | 160 kts | 37° |
| 2026-05-05 11:17 | 27.47126 | 89.27751 | 12701 ft | 166 kts | 50° |
| 2026-05-05 11:17 | 27.47766 | 89.28851 | 12517 ft | 165 kts | 67° |
| 2026-05-05 11:17 | 27.48146 | 89.30039 | 12239 ft | 159 kts | 80° |
| 2026-05-05 11:18 | 27.48280 | 89.31246 | 11892 ft | 156 kts | 93° |
| 2026-05-05 11:18 | 27.48177 | 89.32443 | 11560 ft | 152 kts | 104° |
| 2026-05-05 11:18 | 27.47863 | 89.33569 | 11189 ft | 151 kts | 115° |
| 2026-05-05 11:18 | 27.47351 | 89.34596 | 10739 ft | 150 kts | 126° |
| 2026-05-05 11:19 | 27.46645 | 89.35495 | 10303 ft | 156 kts | 137° |
| 2026-05-05 11:19 | 27.45756 | 89.36224 | 9809 ft | 160 kts | 149° |
| 2026-05-05 11:19 | 27.44885 | 89.36972 | 9429 ft | 155 kts | 136° |
| 2026-05-05 11:19 | 27.44246 | 89.37916 | 9028 ft | 155 kts | 122° |
| 2026-05-05 11:20 | 27.44062 | 89.39198 | 8279 ft | 170 kts | 99° |
| 2026-05-05 11:20 | 27.43597 | 89.40321 | 7970 ft | 153 kts | 136° |
| 2026-05-05 11:20 | 27.42885 | 89.41145 | 7743 ft | 145 kts | 136° |
| 2026-05-05 11:20 | 27.41992 | 89.41635 | 7709 ft | 145 kts | 172° |
| 2026-05-05 11:21 | 27.41069 | 89.42013 | 7375 ft | 138 kts | 152° |
| 2026-05-05 11:21 | 27.40336 | 89.42465 | 7328 ft | 96 kts | 149° |
| 2026-05-05 11:21 | 27.40004 | 89.42678 | 7323 ft | 29 kts | 150° |
| 2026-05-05 11:21 | 27.39842 | 89.42778 | 7323 ft | 26 kts | 152° |
| 2026-05-05 11:22 | 27.39691 | 89.42875 | 7320 ft | 24 kts | 152° |
| 2026-05-05 11:22 | 27.39549 | 89.42960 | 7317 ft | 20 kts | 154° |
| 2026-05-05 11:22 | 27.39467 | 89.42996 | 7315 ft | 11 kts | 165° |
| 2026-05-05 11:22 | 27.39431 | 89.42968 | 7320 ft | 1 kts | 250° |
| 2026-05-05 11:23 | 27.39435 | 89.42932 | 7322 ft | 11 kts | 308° |
| 2026-05-05 11:23 | 27.39506 | 89.42889 | 7324 ft | 12 kts | 332° |
| 2026-05-05 11:23 | 27.39575 | 89.42847 | 7324 ft | 11 kts | 331° |
| 2026-05-05 11:24 | 27.39640 | 89.42803 | 7324 ft | 11 kts | 328° |
| 2026-05-05 11:24 | 27.39705 | 89.42761 | 7325 ft | 11 kts | 330° |
| 2026-05-05 11:24 | 27.39768 | 89.42721 | 7325 ft | 10 kts | 331° |
| 2026-05-05 11:24 | 27.39838 | 89.42677 | 7326 ft | 13 kts | 328° |
| 2026-05-05 11:25 | 27.39918 | 89.42624 | 7326 ft | 14 kts | 330° |
| 2026-05-05 11:25 | 27.40012 | 89.42565 | 7326 ft | 16 kts | 331° |
| 2026-05-05 11:25 | 27.40107 | 89.42506 | 7327 ft | 15 kts | 331° |
| 2026-05-05 11:25 | 27.40199 | 89.42447 | 7327 ft | 15 kts | 330° |
| 2026-05-05 11:26 | 27.40289 | 89.42390 | 7328 ft | 14 kts | 331° |
| 2026-05-05 11:26 | 27.40370 | 89.42338 | 7329 ft | 12 kts | 329° |
| 2026-05-05 11:26 | 27.40435 | 89.42297 | 7329 ft | 10 kts | 332° |
| 2026-05-05 11:26 | 27.40499 | 89.42256 | 7330 ft | 12 kts | 329° |
| 2026-05-05 11:27 | 27.40567 | 89.42205 | 7330 ft | 11 kts | 327° |
| 2026-05-05 11:27 | 27.40620 | 89.42172 | 7331 ft | 7 kts | 333° |
| 2026-05-05 11:27 | 27.40646 | 89.42148 | 7330 ft | 4 kts | 291° |
| 2026-05-05 11:27 | 27.40637 | 89.42116 | 7329 ft | 5 kts | 240° |
| 2026-05-05 11:28 | 27.40630 | 89.42104 | 7328 ft | 0 kts | 240° |